sensor_id;sensor_type;location;lat;lon;timestamp;P1;P2;P0
47711;PMS7003;57457;51.634;5.886;2024-02-16T00:06:41;0.01;1.32;
47711;PMS7003;57457;51.634;5.886;2024-02-16T00:20:00;0.01;1.32;
47711;PMS7003;57457;51.634;5.886;2024-02-16T00:33:22;0.01;1.21;
47711;PMS7003;57457;51.634;5.886;2024-02-16T00:46:43;;;
47711;PMS7003;57457;51.634;5.886;2024-02-16T01:00:03;0.01;1.32;
47711;PMS7003;57457;51.634;5.886;2024-02-16T01:13:23;0.01;;
47711;PMS7003;57457;51.634;5.886;2024-02-16T01:26:44;0.01;1.21;
47711;PMS7003;57457;51.634;5.886;2024-02-16T01:40:04;0.01;1.21;
47711;PMS7003;57457;51.634;5.886;2024-02-16T01:53:24;0.01;1.43;
47711;PMS7003;57457;51.634;5.886;2024-02-16T02:06:44;0.01;1.32;
47711;PMS7003;57457;51.634;5.886;2024-02-16T02:20:03;0.01;1.32;
47711;PMS7003;57457;51.634;5.886;2024-02-16T02:33:23;0.01;1.21;
47711;PMS7003;57457;51.634;5.886;2024-02-16T02:46:43;0.01;;
47711;PMS7003;57457;51.634;5.886;2024-02-16T03:00:03;0.01;1.32;
47711;PMS7003;57457;51.634;5.886;2024-02-16T03:13:22;0.01;1.32;
47711;PMS7003;57457;51.634;5.886;2024-02-16T03:26:42;0.01;1.21;
47711;PMS7003;57457;51.634;5.886;2024-02-16T03:40:02;0.01;1.21;
47711;PMS7003;57457;51.634;5.886;2024-02-16T03:53:22;0.01;1.32;
47711;PMS7003;57457;51.634;5.886;2024-02-16T04:06:42;0.24;1.32;
47711;PMS7003;57457;51.634;5.886;2024-02-16T04:20:02;0.01;1.21;
47711;PMS7003;57457;51.634;5.886;2024-02-16T04:33:21;0.01;1.32;
47711;PMS7003;57457;51.634;5.886;2024-02-16T04:46:41;0.01;1.43;
47711;PMS7003;57457;51.634;5.886;2024-02-16T05:00:01;;;
47711;PMS7003;57457;51.634;5.886;2024-02-16T05:13:21;0.01;1.32;
47711;PMS7003;57457;51.634;5.886;2024-02-16T05:26:41;0.01;1.32;
47711;PMS7003;57457;51.634;5.886;2024-02-16T05:40:01;0.01;1.32;
47711;PMS7003;57457;51.634;5.886;2024-02-16T05:53:20;0.01;1.21;
47711;PMS7003;57457;51.634;5.886;2024-02-16T06:06:40;0.01;1.32;
47711;PMS7003;57457;51.634;5.886;2024-02-16T06:20:00;0.01;1.43;
47711;PMS7003;57457;51.634;5.886;2024-02-16T06:33:20;0.01;1.21;
47711;PMS7003;57457;51.634;5.886;2024-02-16T06:46:40;0.01;1.32;
47711;PMS7003;57457;51.634;5.886;2024-02-16T06:59:59;0.01;1.32;
47711;PMS7003;57457;51.634;5.886;2024-02-16T07:13:19;0.01;1.32;
47711;PMS7003;57457;51.634;5.886;2024-02-16T07:26:39;0.01;;
47711;PMS7003;57457;51.634;5.886;2024-02-16T07:39:59;0.01;1.21;
47711;PMS7003;57457;51.634;5.886;2024-02-16T07:53:19;0.01;1.32;
47711;PMS7003;57457;51.634;5.886;2024-02-16T08:06:38;0.01;1.32;
47711;PMS7003;57457;51.634;5.886;2024-02-16T08:19:58;0.01;;
47711;PMS7003;57457;51.634;5.886;2024-02-16T08:33:18;0.01;1.21;
47711;PMS7003;57457;51.634;5.886;2024-02-16T08:46:38;0.01;1.21;
47711;PMS7003;57457;51.634;5.886;2024-02-16T08:59:58;0.01;1.21;
47711;PMS7003;57457;51.634;5.886;2024-02-16T09:13:17;0.01;;
47711;PMS7003;57457;51.634;5.886;2024-02-16T09:26:37;0.01;1.32;
47711;PMS7003;57457;51.634;5.886;2024-02-16T09:39:57;0.01;;
47711;PMS7003;57457;51.634;5.886;2024-02-16T10:19:56;0.01;1.21;
47711;PMS7003;57457;51.634;5.886;2024-02-16T10:33:16;0.01;1.54;
47711;PMS7003;57457;51.634;5.886;2024-02-16T10:46:36;0.01;1.43;
47711;PMS7003;57457;51.634;5.886;2024-02-16T10:59:56;0.01;1.54;
47711;PMS7003;57457;51.634;5.886;2024-02-16T11:13:16;0.01;1.32;
47711;PMS7003;57457;51.634;5.886;2024-02-16T11:26:35;0.01;1.54;
47711;PMS7003;57457;51.634;5.886;2024-02-16T11:39:55;0.01;1.64;
47711;PMS7003;57457;51.634;5.886;2024-02-16T11:53:17;0.01;1.97;
47711;PMS7003;57457;51.634;5.886;2024-02-16T12:06:38;0.01;1.54;
47711;PMS7003;57457;51.634;5.886;2024-02-16T12:19:58;0.01;1.64;1.21
47711;PMS7003;57457;51.634;5.886;2024-02-16T12:33:18;1.2;2.19;1.21
47711;PMS7003;57457;51.634;5.886;2024-02-16T12:46:39;0.84;1.64;1.21
47711;PMS7003;57457;51.634;5.886;2024-02-16T12:59:59;0.48;2.41;
47711;PMS7003;57457;51.634;5.886;2024-02-16T13:13:18;3.36;2.52;1.21
47711;PMS7003;57457;51.634;5.886;2024-02-16T13:26:38;0.12;2.41;1.32
47711;PMS7003;57457;51.634;5.886;2024-02-16T13:39:58;1.32;1.86;
47711;PMS7003;57457;51.634;5.886;2024-02-16T13:53:18;0.72;1.86;
47711;PMS7003;57457;51.634;5.886;2024-02-16T14:06:38;0.72;2.3;1.21
47711;PMS7003;57457;51.634;5.886;2024-02-16T14:19:57;1.92;1.64;1.21
47711;PMS7003;57457;51.634;5.886;2024-02-16T14:33:17;0.48;2.3;
47711;PMS7003;57457;51.634;5.886;2024-02-16T14:46:37;0.01;1.64;
47711;PMS7003;57457;51.634;5.886;2024-02-16T14:59:57;0.01;1.54;
47711;PMS7003;57457;51.634;5.886;2024-02-16T15:13:17;0.01;1.86;
47711;PMS7003;57457;51.634;5.886;2024-02-16T15:26:38;0.01;1.21;
47711;PMS7003;57457;51.634;5.886;2024-02-16T15:39:58;0.01;1.21;
47711;PMS7003;57457;51.634;5.886;2024-02-16T15:53:18;0.01;1.43;
47711;PMS7003;57457;51.634;5.886;2024-02-16T16:06:39;0.01;1.75;
47711;PMS7003;57457;51.634;5.886;2024-02-16T16:19:59;0.01;1.86;
47711;PMS7003;57457;51.634;5.886;2024-02-16T16:33:19;0.01;1.75;
47711;PMS7003;57457;51.634;5.886;2024-02-16T16:46:39;0.01;1.64;
47711;PMS7003;57457;51.634;5.886;2024-02-16T16:59:59;0.01;1.75;
47711;PMS7003;57457;51.634;5.886;2024-02-16T17:13:18;0.01;1.75;
47711;PMS7003;57457;51.634;5.886;2024-02-16T17:26:38;0.01;1.43;
47711;PMS7003;57457;51.634;5.886;2024-02-16T17:39:58;0.36;2.84;1.21
47711;PMS7003;57457;51.634;5.886;2024-02-16T17:53:18;0.01;1.75;
47711;PMS7003;57457;51.634;5.886;2024-02-16T18:06:39;0.6;1.75;1.21
47711;PMS7003;57457;51.634;5.886;2024-02-16T18:19:59;0.24;1.64;
47711;PMS7003;57457;51.634;5.886;2024-02-16T18:33:19;1.8;2.08;
47711;PMS7003;57457;51.634;5.886;2024-02-16T18:46:39;0.36;1.75;1.21
47711;PMS7003;57457;51.634;5.886;2024-02-16T18:59:58;0.01;1.97;
47711;PMS7003;57457;51.634;5.886;2024-02-16T19:13:18;0.84;2.19;
47711;PMS7003;57457;51.634;5.886;2024-02-16T19:26:38;1.32;2.52;
47711;PMS7003;57457;51.634;5.886;2024-02-16T19:39:58;0.84;1.97;1.21
47711;PMS7003;57457;51.634;5.886;2024-02-16T19:53:18;1.44;2.08;
47711;PMS7003;57457;51.634;5.886;2024-02-16T20:06:39;0.84;2.41;1.21
47711;PMS7003;57457;51.634;5.886;2024-02-16T20:20:00;0.01;1.75;
47711;PMS7003;57457;51.634;5.886;2024-02-16T20:46:40;0.01;1.97;1.32
47711;PMS7003;57457;51.634;5.886;2024-02-16T21:00:00;0.01;1.75;
47711;PMS7003;57457;51.634;5.886;2024-02-16T21:13:20;0.6;1.97;
47711;PMS7003;57457;51.634;5.886;2024-02-16T21:26:41;0.01;2.3;1.21
47711;PMS7003;57457;51.634;5.886;2024-02-16T21:40:01;0.24;1.86;1.21
47711;PMS7003;57457;51.634;5.886;2024-02-16T21:53:21;0.0;2.08;
47711;PMS7003;57457;51.634;5.886;2024-02-16T22:06:40;0.01;2.08;1.21
47711;PMS7003;57457;51.634;5.886;2024-02-16T22:20:00;2.76;2.3;1.32
47711;PMS7003;57457;51.634;5.886;2024-02-16T22:33:20;0.01;2.3;1.43
47711;PMS7003;57457;51.634;5.886;2024-02-16T22:46:40;0.01;2.62;1.43
47711;PMS7003;57457;51.634;5.886;2024-02-16T23:00:00;0.01;2.19;
47711;PMS7003;57457;51.634;5.886;2024-02-16T23:13:20;1.44;2.19;
47711;PMS7003;57457;51.634;5.886;2024-02-16T23:26:39;1.08;2.3;
47711;PMS7003;57457;51.634;5.886;2024-02-16T23:39:59;0.01;2.19;1.43
47711;PMS7003;57457;51.634;5.886;2024-02-16T23:53:19;3.6;3.17;1.32
